createdAt,value
2018-08-17T00:00:17.657Z,19.80
2018-08-17T00:02:46.083Z,19.70
2018-08-17T00:05:14.638Z,19.70
2018-08-17T00:07:43.220Z,19.70
2018-08-17T00:10:11.711Z,19.60
2018-08-17T00:12:40.954Z,19.60
2018-08-17T00:15:09.614Z,19.60
2018-08-17T00:17:38.277Z,19.60
2018-08-17T00:20:07.533Z,19.60
2018-08-17T00:22:36.781Z,19.50
2018-08-17T00:25:05.290Z,19.40
2018-08-17T00:27:33.737Z,19.50
2018-08-17T00:30:02.282Z,19.40
2018-08-17T00:32:30.796Z,19.30
2018-08-17T00:34:59.802Z,19.30
2018-08-17T00:37:28.267Z,19.30
2018-08-17T00:39:57.426Z,19.30
2018-08-17T00:42:26.665Z,19.20
2018-08-17T00:44:55.199Z,19.30
2018-08-17T00:47:23.681Z,19.20
2018-08-17T00:49:52.174Z,19.20
2018-08-17T00:52:20.699Z,19.10
2018-08-17T00:54:49.861Z,19.10
2018-08-17T00:57:18.334Z,19.10
2018-08-17T00:59:46.817Z,19.00
2018-08-17T01:02:15.350Z,19.00
2018-08-17T01:04:43.778Z,19.00
2018-08-17T01:07:12.324Z,19.00
2018-08-17T01:09:40.845Z,19.00
2018-08-17T01:12:09.312Z,19.00
2018-08-17T01:14:38.558Z,19.00
2018-08-17T01:17:06.970Z,19.00
2018-08-17T01:19:36.172Z,19.00
2018-08-17T01:22:04.625Z,19.00
2018-08-17T01:24:33.640Z,19.00
2018-08-17T01:27:02.123Z,19.00
2018-08-17T01:29:30.542Z,18.90
2018-08-17T01:31:59.092Z,18.90
2018-08-17T01:34:28.392Z,19.00
2018-08-17T01:36:56.958Z,18.90
2018-08-17T01:39:25.387Z,18.90
2018-08-17T01:41:53.899Z,18.80
2018-08-17T01:44:22.377Z,18.80
2018-08-17T01:46:50.805Z,18.70
2018-08-17T01:49:19.326Z,18.80
2018-08-17T01:51:47.726Z,18.80
2018-08-17T01:54:16.919Z,18.70
2018-08-17T01:56:45.488Z,18.70
2018-08-17T01:59:13.916Z,18.70
2018-08-17T02:01:42.451Z,18.70
2018-08-17T02:04:10.981Z,18.70
2018-08-17T02:06:42.369Z,18.80
2018-08-17T02:09:12.075Z,18.80
2018-08-17T02:11:40.945Z,18.80
2018-08-17T02:14:09.397Z,18.70
2018-08-17T02:16:38.508Z,18.70
2018-08-17T02:19:06.973Z,18.80
2018-08-17T02:21:35.422Z,18.80
2018-08-17T02:24:04.414Z,18.70
2018-08-17T02:26:32.859Z,18.70
2018-08-17T02:29:01.494Z,18.60
2018-08-17T02:31:29.955Z,18.70
2018-08-17T02:33:58.376Z,18.70
2018-08-17T02:36:27.319Z,18.70
2018-08-17T02:38:55.848Z,18.60
2018-08-17T02:41:24.468Z,18.60
2018-08-17T02:43:53.010Z,18.70
2018-08-17T02:46:21.509Z,18.70
2018-08-17T02:48:50.730Z,18.80
2018-08-17T02:51:19.706Z,18.80
2018-08-17T02:53:48.151Z,18.80
2018-08-17T02:56:17.192Z,18.80
2018-08-17T02:58:45.642Z,18.80
2018-08-17T03:01:14.631Z,18.80
2018-08-17T03:03:43.112Z,18.80
2018-08-17T03:06:11.609Z,18.80
2018-08-17T03:08:40.026Z,18.70
2018-08-17T03:11:08.615Z,18.70
2018-08-17T03:13:37.083Z,18.70
2018-08-17T03:16:05.645Z,18.80
2018-08-17T03:18:35.446Z,18.90
2018-08-17T03:21:04.390Z,18.90
2018-08-17T03:23:32.928Z,18.90
2018-08-17T03:26:01.403Z,18.90
2018-08-17T03:28:29.892Z,18.80
2018-08-17T03:30:58.502Z,18.70
2018-08-17T03:33:26.966Z,18.60
2018-08-17T03:35:56.028Z,18.30
2018-08-17T03:38:24.552Z,18.20
2018-08-17T03:40:52.995Z,18.10
2018-08-17T03:43:21.554Z,18.20
2018-08-17T03:45:50.054Z,18.30
2018-08-17T03:48:18.529Z,18.20
2018-08-17T03:50:47.012Z,18.10
2018-08-17T03:53:15.564Z,18.10
2018-08-17T03:55:44.446Z,18.10
2018-08-17T03:58:13.034Z,18.20
2018-08-17T04:00:41.477Z,18.20
2018-08-17T04:03:10.680Z,18.20
2018-08-17T04:05:39.141Z,18.10
2018-08-17T04:08:07.631Z,18.00
2018-08-17T04:10:36.128Z,17.80
2018-08-17T04:13:04.586Z,17.80
2018-08-17T04:15:33.079Z,17.90
2018-08-17T04:18:01.598Z,17.90
2018-08-17T04:20:30.088Z,18.00
2018-08-17T04:22:58.646Z,18.00
2018-08-17T04:25:27.141Z,17.90
2018-08-17T04:27:55.770Z,17.80
2018-08-17T04:30:24.185Z,17.90
2018-08-17T04:32:52.668Z,17.90
2018-08-17T04:35:21.119Z,17.90
2018-08-17T04:37:49.529Z,17.80
2018-08-17T04:40:18.083Z,17.80
2018-08-17T04:42:46.594Z,17.80
2018-08-17T04:45:15.632Z,17.70
2018-08-17T04:47:44.061Z,17.80
2018-08-17T04:50:13.230Z,17.80
2018-08-17T04:52:41.688Z,17.90
2018-08-17T04:55:10.272Z,17.90
2018-08-17T04:57:38.779Z,18.00
2018-08-17T05:00:08.946Z,18.00
2018-08-17T05:02:38.350Z,18.10
2018-08-17T05:05:08.282Z,18.30
2018-08-17T05:07:37.029Z,18.30
2018-08-17T05:10:06.791Z,18.40
2018-08-17T05:12:35.361Z,18.50
2018-08-17T05:15:03.924Z,18.60
2018-08-17T05:17:32.529Z,18.80
2018-08-17T05:20:00.940Z,18.90
2018-08-17T05:22:29.379Z,19.00
2018-08-17T05:24:57.823Z,19.20
2018-08-17T05:27:26.271Z,19.30
2018-08-17T05:29:54.798Z,19.40
2018-08-17T05:32:23.235Z,19.50
2018-08-17T05:34:51.743Z,19.50
2018-08-17T05:37:20.287Z,19.60
2018-08-17T05:39:48.713Z,19.60
2018-08-17T05:42:17.138Z,19.70
2018-08-17T05:44:45.811Z,19.80
2018-08-17T05:47:14.495Z,19.80
2018-08-17T05:49:43.294Z,19.90
2018-08-17T05:52:11.851Z,20.00
2018-08-17T05:54:40.418Z,20.10
2018-08-17T05:57:08.996Z,20.20
2018-08-17T05:59:37.577Z,20.30
2018-08-17T06:02:06.140Z,20.30
2018-08-17T06:04:34.762Z,20.30
2018-08-17T06:07:03.422Z,20.20
2018-08-17T06:09:31.913Z,20.30
2018-08-17T06:12:00.450Z,20.30
2018-08-17T06:14:29.550Z,20.30
2018-08-17T06:16:58.488Z,20.40
2018-08-17T06:19:27.043Z,20.40
2018-08-17T06:21:55.985Z,20.40
2018-08-17T06:24:24.661Z,20.50
2018-08-17T06:26:53.200Z,20.50
2018-08-17T06:29:21.715Z,20.50
2018-08-17T06:31:50.699Z,20.50
2018-08-17T06:34:19.244Z,20.50
2018-08-17T06:36:47.723Z,20.40
2018-08-17T06:39:16.148Z,20.50
2018-08-17T06:41:44.657Z,20.50
2018-08-17T06:44:13.094Z,20.50
2018-08-17T06:46:41.872Z,20.50
2018-08-17T06:49:11.377Z,20.70
2018-08-17T06:51:41.605Z,20.90
2018-08-17T06:54:10.103Z,21.10
2018-08-17T06:56:38.665Z,21.30
2018-08-17T06:59:07.352Z,21.50
2018-08-17T07:01:36.656Z,21.70
2018-08-17T07:04:05.209Z,21.90
2018-08-17T07:06:33.601Z,22.10
2018-08-17T07:09:02.130Z,22.30
2018-08-17T07:11:30.893Z,22.60
2018-08-17T07:13:59.423Z,22.70
2018-08-17T07:16:28.154Z,22.80
2018-08-17T07:18:57.081Z,22.70
2018-08-17T07:21:26.484Z,22.90
2018-08-17T07:23:55.241Z,23.00
2018-08-17T07:26:23.805Z,23.20
2018-08-17T07:28:52.361Z,23.20
2018-08-17T07:31:21.254Z,23.40
2018-08-17T07:33:50.069Z,23.70
2018-08-17T07:36:18.710Z,24.10
2018-08-17T07:38:47.665Z,24.30
2018-08-17T07:41:16.317Z,24.20
2018-08-17T07:43:45.517Z,24.20
2018-08-17T07:46:14.148Z,24.20
2018-08-17T07:48:42.682Z,24.60
2018-08-17T07:51:11.247Z,24.90
2018-08-17T07:53:39.839Z,25.20
2018-08-17T07:56:08.618Z,25.60
2018-08-17T07:58:37.353Z,25.80
2018-08-17T08:01:06.094Z,26.10
2018-08-17T08:03:35.246Z,26.30
2018-08-17T08:06:03.702Z,26.50
2018-08-17T08:08:32.345Z,26.80
2018-08-17T08:11:01.561Z,27.00
2018-08-17T08:13:30.121Z,27.30
2018-08-17T08:15:58.805Z,27.40
2018-08-17T08:18:27.489Z,27.80
2018-08-17T08:20:56.961Z,28.10
2018-08-17T08:23:27.914Z,27.60
2018-08-17T08:25:56.893Z,27.70
2018-08-17T08:28:26.133Z,27.30
2018-08-17T08:30:54.762Z,27.50
2018-08-17T08:33:23.569Z,27.70
2018-08-17T08:35:52.152Z,28.00
2018-08-17T08:38:21.596Z,27.70
2018-08-17T08:40:50.312Z,27.80
2018-08-17T08:43:20.013Z,28.20
2018-08-17T08:45:48.872Z,28.50
2018-08-17T08:48:17.497Z,28.70
2018-08-17T08:50:46.144Z,28.50
2018-08-17T08:53:14.621Z,28.70
2018-08-17T08:55:43.304Z,29.20
2018-08-17T08:58:12.370Z,29.30
2018-08-17T09:00:40.989Z,29.40
2018-08-17T09:03:09.690Z,29.30
2018-08-17T09:05:38.275Z,29.50
2018-08-17T09:08:06.849Z,29.20
2018-08-17T09:10:36.097Z,29.20
2018-08-17T09:13:04.671Z,29.60
2018-08-17T09:15:33.958Z,30.00
2018-08-17T09:18:02.703Z,30.50
2018-08-17T09:20:31.613Z,31.00
2018-08-17T09:23:00.242Z,30.40
2018-08-17T09:25:29.132Z,30.00
2018-08-17T09:27:57.757Z,30.30
2018-08-17T09:30:26.295Z,30.40
2018-08-17T09:32:55.593Z,30.60
2018-08-17T09:35:24.066Z,31.10
2018-08-17T09:37:52.853Z,31.20
2018-08-17T09:40:21.617Z,31.30
2018-08-17T09:42:50.142Z,31.30
2018-08-17T09:45:18.736Z,31.20
2018-08-17T09:47:47.412Z,31.00
2018-08-17T09:50:16.297Z,31.20
2018-08-17T09:52:44.809Z,30.90
2018-08-17T09:55:13.705Z,31.40
2018-08-17T09:57:42.270Z,31.80
2018-08-17T10:00:11.291Z,31.70
2018-08-17T10:02:45.261Z,32.00
2018-08-17T10:05:19.457Z,32.40
2018-08-17T10:07:53.279Z,32.40
2018-08-17T10:10:24.168Z,31.50
2018-08-17T10:12:53.847Z,31.30
2018-08-17T10:15:23.663Z,31.60
2018-08-17T10:17:52.449Z,31.90
2018-08-17T10:20:22.369Z,32.20
2018-08-17T10:22:51.814Z,32.10
2018-08-17T10:25:23.594Z,32.40
2018-08-17T10:27:53.390Z,32.50
2018-08-17T10:30:22.550Z,32.50
2018-08-17T10:32:58.236Z,32.70
2018-08-17T10:35:28.627Z,32.50
2018-08-17T10:37:58.662Z,32.10
2018-08-17T10:40:27.633Z,32.30
2018-08-17T10:42:56.245Z,32.40
2018-08-17T10:46:28.422Z,32.70
2018-08-17T10:48:57.083Z,32.70
2018-08-17T10:51:25.704Z,33.00
2018-08-17T10:53:54.122Z,32.70
2018-08-17T10:56:23.842Z,32.50
2018-08-17T10:58:52.379Z,32.50
2018-08-17T11:01:21.261Z,32.30
2018-08-17T11:03:49.770Z,32.20
2018-08-17T11:06:18.409Z,31.90
2018-08-17T11:08:46.935Z,31.50
2018-08-17T11:11:15.456Z,31.80
2018-08-17T11:13:44.038Z,31.70
2018-08-17T11:16:12.647Z,31.70
2018-08-17T11:18:41.220Z,32.30
2018-08-17T11:21:09.774Z,32.50
2018-08-17T11:23:39.081Z,32.80
2018-08-17T11:26:08.195Z,32.90
2018-08-17T11:28:36.801Z,32.90
2018-08-17T11:31:05.495Z,32.50
2018-08-17T11:33:34.165Z,31.60
2018-08-17T11:36:02.781Z,31.60
2018-08-17T11:38:31.409Z,31.90
2018-08-17T11:41:00.030Z,31.70
2018-08-17T11:43:28.585Z,31.20
2018-08-17T11:45:57.371Z,31.10
2018-08-17T11:48:36.346Z,31.00
2018-08-17T11:51:13.315Z,31.10
2018-08-17T11:53:49.117Z,31.30
2018-08-17T11:56:21.974Z,31.50
2018-08-17T11:58:58.633Z,31.50
2018-08-17T12:01:28.404Z,31.50
2018-08-17T12:03:57.220Z,31.40
2018-08-17T12:06:26.129Z,31.80
2018-08-17T12:08:54.829Z,31.90
2018-08-17T12:11:23.333Z,32.00
2018-08-17T12:13:51.945Z,32.00
2018-08-17T12:16:20.501Z,32.30
2018-08-17T12:18:49.512Z,32.30
2018-08-17T12:21:17.973Z,31.80
2018-08-17T12:23:46.405Z,31.50
2018-08-17T12:26:15.410Z,31.60
2018-08-17T12:28:44.375Z,31.80
2018-08-17T12:31:13.070Z,31.80
2018-08-17T12:33:41.641Z,32.00
2018-08-17T12:36:10.146Z,32.00
2018-08-17T12:38:38.798Z,32.20
2018-08-17T12:41:08.010Z,31.90
2018-08-17T12:43:38.880Z,31.90
2018-08-17T12:46:08.425Z,31.90
2018-08-17T12:48:37.062Z,32.00
2018-08-17T12:51:06.657Z,32.40
2018-08-17T12:53:36.067Z,32.40
2018-08-17T12:56:04.526Z,32.00
2018-08-17T12:58:33.095Z,31.70
2018-08-17T13:01:01.565Z,32.50
2018-08-17T13:03:29.961Z,32.40
2018-08-17T13:05:58.951Z,32.00
2018-08-17T13:08:27.852Z,31.40
2018-08-17T13:10:59.348Z,31.40
2018-08-17T13:13:27.884Z,31.50
2018-08-17T13:16:01.854Z,32.00
2018-08-17T13:18:33.361Z,32.10
2018-08-17T13:21:02.154Z,31.70
2018-08-17T13:23:30.932Z,31.80
2018-08-17T13:25:59.832Z,32.10
2018-08-17T13:28:28.513Z,32.40
2018-08-17T13:30:57.909Z,32.10
2018-08-17T13:33:26.429Z,31.90
2018-08-17T13:35:54.927Z,31.80
2018-08-17T13:38:23.450Z,31.60
2018-08-17T13:40:52.474Z,31.70
2018-08-17T13:43:21.080Z,31.60
2018-08-17T13:45:49.670Z,31.30
2018-08-17T13:48:18.330Z,31.20
2018-08-17T13:50:46.912Z,31.00
2018-08-17T13:53:15.568Z,30.70
2018-08-17T13:55:44.221Z,30.90
2018-08-17T13:58:12.689Z,30.70
2018-08-17T14:00:41.515Z,30.80
2018-08-17T14:03:10.686Z,31.10
2018-08-17T14:05:39.350Z,31.40
2018-08-17T14:08:07.979Z,31.30
2018-08-17T14:10:36.682Z,31.30
2018-08-17T14:13:05.165Z,31.30
2018-08-17T14:15:33.739Z,31.40
2018-08-17T14:18:02.310Z,31.40
2018-08-17T14:20:30.873Z,31.30
2018-08-17T14:23:00.156Z,31.30
2018-08-17T14:25:28.644Z,31.10
2018-08-17T14:27:57.258Z,30.70
2018-08-17T14:30:25.767Z,30.70
2018-08-17T14:32:54.349Z,30.80
2018-08-17T14:35:23.028Z,30.80
2018-08-17T14:37:51.656Z,30.70
2018-08-17T14:40:21.116Z,30.70
2018-08-17T14:42:49.665Z,30.80
2018-08-17T14:45:19.042Z,30.70
2018-08-17T14:47:47.825Z,30.70
2018-08-17T14:50:16.242Z,30.30
2018-08-17T14:52:44.729Z,30.30
2018-08-17T14:55:13.552Z,30.20
2018-08-17T14:57:42.081Z,30.40
2018-08-17T15:00:13.458Z,30.50
2018-08-17T15:02:42.033Z,30.40
2018-08-17T15:05:18.317Z,30.10
2018-08-17T15:07:46.959Z,30.10
2018-08-17T15:10:15.624Z,30.30
2018-08-17T15:12:44.272Z,30.40
2018-08-17T15:15:13.350Z,30.50
2018-08-17T15:17:42.253Z,30.40
2018-08-17T15:20:12.306Z,30.40
2018-08-17T15:22:41.316Z,30.40
2018-08-17T15:25:09.879Z,30.20
2018-08-17T15:27:38.652Z,30.30
2018-08-17T15:30:08.978Z,30.40
2018-08-17T15:32:37.941Z,30.40
2018-08-17T15:35:06.624Z,30.40
2018-08-17T15:37:35.931Z,30.50
2018-08-17T15:40:05.499Z,30.30
2018-08-17T15:42:33.883Z,30.10
2018-08-17T15:45:02.446Z,30.00
2018-08-17T15:47:34.081Z,30.00
2018-08-17T15:50:08.775Z,29.90
2018-08-17T15:52:37.914Z,29.90
2018-08-17T15:55:07.417Z,29.90
2018-08-17T15:57:35.879Z,29.70
2018-08-17T16:00:05.416Z,29.60
2018-08-17T16:02:34.725Z,29.60
2018-08-17T16:05:03.460Z,29.60
2018-08-17T16:07:32.049Z,29.60
2018-08-17T16:10:00.632Z,29.70
2018-08-17T16:12:30.025Z,29.40
2018-08-17T16:14:58.570Z,29.30
2018-08-17T16:17:27.199Z,29.30
2018-08-17T16:19:55.921Z,29.30
2018-08-17T16:22:24.452Z,29.20
2018-08-17T16:24:53.012Z,29.20
2018-08-17T16:27:22.057Z,29.20
2018-08-17T16:29:50.740Z,29.10
2018-08-17T16:32:19.583Z,29.20
2018-08-17T16:34:48.310Z,29.10
2018-08-17T16:37:17.682Z,28.90
2018-08-17T16:39:51.544Z,28.90
2018-08-17T16:42:25.008Z,28.80
2018-08-17T16:45:01.127Z,28.70
2018-08-17T16:47:29.890Z,28.60
2018-08-17T16:49:58.401Z,28.60
2018-08-17T16:52:26.994Z,28.50
2018-08-17T16:54:56.304Z,28.40
2018-08-17T16:57:24.921Z,28.40
2018-08-17T16:59:53.729Z,28.30
2018-08-17T17:02:22.685Z,28.30
2018-08-17T17:04:51.332Z,28.30
2018-08-17T17:07:20.241Z,28.20
2018-08-17T17:09:49.262Z,28.20
2018-08-17T17:12:19.119Z,28.10
2018-08-17T17:14:47.934Z,28.10
2018-08-17T17:17:16.775Z,28.10
2018-08-17T17:19:45.537Z,28.10
2018-08-17T17:22:14.732Z,28.10
2018-08-17T17:24:44.137Z,28.10
2018-08-17T17:27:13.381Z,28.10
2018-08-17T17:29:42.642Z,28.00
2018-08-17T17:32:11.258Z,27.90
2018-08-17T17:34:39.997Z,27.90
2018-08-17T17:37:08.592Z,27.90
2018-08-17T17:39:37.104Z,27.70
2018-08-17T17:42:06.310Z,27.60
2018-08-17T17:44:35.120Z,27.50
2018-08-17T17:47:04.177Z,27.60
2018-08-17T17:49:32.796Z,27.50
2018-08-17T17:52:01.431Z,27.50
2018-08-17T17:54:30.033Z,27.50
2018-08-17T17:57:03.409Z,27.50
2018-08-17T17:59:32.440Z,27.30
2018-08-17T18:02:00.991Z,27.20
2018-08-17T18:04:31.048Z,27.20
2018-08-17T18:07:00.092Z,27.20
2018-08-17T18:09:28.918Z,27.10
2018-08-17T18:11:57.671Z,27.00
2018-08-17T18:14:26.207Z,26.90
2018-08-17T18:16:54.849Z,26.80
2018-08-17T18:19:23.725Z,26.80
2018-08-17T18:21:52.246Z,26.80
2018-08-17T18:24:20.838Z,26.80
2018-08-17T18:26:50.480Z,26.90
2018-08-17T18:29:20.141Z,26.90
2018-08-17T18:31:48.670Z,26.80
2018-08-17T18:34:17.902Z,26.80
2018-08-17T18:36:46.580Z,26.70
2018-08-17T18:39:16.134Z,26.70
2018-08-17T18:41:44.853Z,26.50
2018-08-17T18:44:13.563Z,26.50
2018-08-17T18:46:42.487Z,26.40
2018-08-17T18:49:11.158Z,26.30
2018-08-17T18:51:39.842Z,26.20
2018-08-17T18:54:08.387Z,26.00
2018-08-17T18:56:37.017Z,25.90
2018-08-17T18:59:05.636Z,25.80
2018-08-17T19:01:34.854Z,25.80
2018-08-17T19:04:03.609Z,25.70
2018-08-17T19:06:32.138Z,25.70
2018-08-17T19:09:00.772Z,25.70
2018-08-17T19:11:29.253Z,25.60
2018-08-17T19:13:57.880Z,25.60
2018-08-17T19:16:27.440Z,25.60
2018-08-17T19:18:56.036Z,25.50
2018-08-17T19:21:24.750Z,25.40
2018-08-17T19:23:53.864Z,25.40
2018-08-17T19:26:22.606Z,25.40
2018-08-17T19:28:51.689Z,25.20
2018-08-17T19:31:20.173Z,25.00
2018-08-17T19:33:48.743Z,25.10
2018-08-17T19:36:17.178Z,24.90
2018-08-17T19:38:45.858Z,24.90
2018-08-17T19:41:14.518Z,24.90
2018-08-17T19:43:43.203Z,24.80
2018-08-17T19:46:12.048Z,24.80
2018-08-17T19:48:40.475Z,24.80
2018-08-17T19:51:14.325Z,24.70
2018-08-17T19:53:42.903Z,24.70
2018-08-17T19:56:11.513Z,24.70
2018-08-17T19:58:40.489Z,24.70
2018-08-17T20:01:08.994Z,24.70
2018-08-17T20:03:37.601Z,24.70
2018-08-17T20:06:06.322Z,24.60
2018-08-17T20:08:34.947Z,24.60
2018-08-17T20:11:04.282Z,24.50
2018-08-17T20:13:32.834Z,24.50
2018-08-17T20:16:01.358Z,24.40
2018-08-17T20:18:29.790Z,24.50
2018-08-17T20:20:59.149Z,24.40
2018-08-17T20:23:27.576Z,24.30
2018-08-17T20:25:56.467Z,24.30
2018-08-17T20:28:25.277Z,24.20
2018-08-17T20:30:53.858Z,24.20
2018-08-17T20:33:26.811Z,24.20
2018-08-17T20:35:55.614Z,24.10
2018-08-17T20:38:24.169Z,24.00
2018-08-17T20:40:54.012Z,24.00
2018-08-17T20:43:22.484Z,24.00
2018-08-17T20:45:51.420Z,23.90
2018-08-17T20:48:20.149Z,23.90
2018-08-17T20:50:48.945Z,23.90
2018-08-17T20:53:20.514Z,23.80
2018-08-17T20:55:49.092Z,23.80
2018-08-17T20:58:17.627Z,23.70
2018-08-17T21:00:46.419Z,23.70
2018-08-17T21:03:14.965Z,23.60
2018-08-17T21:05:43.820Z,23.60
2018-08-17T21:08:12.524Z,23.50
2018-08-17T21:10:41.411Z,23.50
2018-08-17T21:13:10.032Z,23.50
2018-08-17T21:15:38.658Z,23.40
2018-08-17T21:18:07.529Z,23.40
2018-08-17T21:20:36.182Z,23.30
2018-08-17T21:23:04.714Z,23.20
2018-08-17T21:25:33.541Z,23.20
2018-08-17T21:28:02.937Z,23.20
2018-08-17T21:30:31.660Z,23.10
2018-08-17T21:33:00.070Z,23.10
2018-08-17T21:35:28.685Z,23.10
2018-08-17T21:37:57.403Z,23.00
2018-08-17T21:40:29.125Z,23.00
2018-08-17T21:42:59.353Z,23.00
2018-08-17T21:45:27.965Z,23.00
2018-08-17T21:47:56.639Z,22.90
2018-08-17T21:50:26.093Z,22.90
2018-08-17T21:52:54.612Z,22.80
2018-08-17T21:55:23.203Z,22.90
2018-08-17T21:57:51.709Z,22.80
2018-08-17T22:00:27.417Z,22.80
2018-08-17T22:02:56.079Z,22.80
2018-08-17T22:05:33.062Z,22.80
2018-08-17T22:08:02.071Z,22.80
2018-08-17T22:10:31.393Z,22.80
2018-08-17T22:13:00.046Z,22.70
2018-08-17T22:15:30.142Z,22.70
2018-08-17T22:17:59.301Z,22.50
2018-08-17T22:20:28.053Z,22.50
2018-08-17T22:22:58.390Z,22.50
2018-08-17T22:25:27.689Z,22.50
2018-08-17T22:27:56.654Z,22.50
2018-08-17T22:30:26.289Z,22.40
2018-08-17T22:32:55.619Z,22.40
2018-08-17T22:35:24.991Z,22.50
2018-08-17T22:37:53.584Z,22.40
2018-08-17T22:40:22.720Z,22.30
2018-08-17T22:42:51.878Z,22.40
2018-08-17T22:45:20.642Z,22.20
2018-08-17T22:47:49.600Z,22.20
2018-08-17T22:50:18.942Z,22.20
2018-08-17T22:52:47.629Z,22.20
2018-08-17T22:55:17.016Z,22.20
2018-08-17T22:57:45.805Z,22.10
2018-08-17T23:00:54.050Z,22.20
2018-08-17T23:03:23.465Z,22.10
2018-08-17T23:05:51.884Z,22.00
2018-08-17T23:08:21.037Z,22.10
2018-08-17T23:10:49.585Z,22.00
2018-08-17T23:13:18.299Z,21.90
2018-08-17T23:15:46.954Z,21.90
2018-08-17T23:18:16.161Z,21.80
2018-08-17T23:20:44.981Z,21.60
2018-08-17T23:23:13.710Z,21.60
2018-08-17T23:25:42.346Z,21.50
2018-08-17T23:28:11.051Z,21.50
2018-08-17T23:30:39.762Z,21.30
2018-08-17T23:33:08.737Z,21.30
2018-08-17T23:35:37.262Z,21.30
2018-08-17T23:38:06.528Z,21.20
2018-08-17T23:40:35.156Z,20.90
2018-08-17T23:43:03.860Z,20.80
2018-08-17T23:45:32.547Z,20.80
2018-08-17T23:48:01.938Z,20.60
2018-08-17T23:50:30.958Z,20.50
2018-08-17T23:52:59.713Z,20.50
2018-08-17T23:55:28.760Z,20.50
2018-08-17T23:57:57.605Z,20.50
